sensor_id;sensor_type;location;lat;lon;timestamp;P1;durP1;ratioP1;P2;durP2;ratioP2
63818;SDS011;49970;54.976;73.248;2023-03-21T00:01:10;25.25;;;7.57;;
63818;SDS011;49970;54.976;73.248;2023-03-21T00:03:37;21.20;;;7.47;;
63818;SDS011;49970;54.976;73.248;2023-03-21T00:06:05;64.53;;;8.70;;
63818;SDS011;49970;54.976;73.248;2023-03-21T00:08:34;12.65;;;7.05;;
63818;SDS011;49970;54.976;73.248;2023-03-21T00:11:01;20.30;;;7.88;;
63818;SDS011;49970;54.976;73.248;2023-03-21T00:13:29;20.45;;;6.85;;
63818;SDS011;49970;54.976;73.248;2023-03-21T00:16:04;17.30;;;7.57;;
63818;SDS011;49970;54.976;73.248;2023-03-21T00:18:31;19.17;;;8.38;;
63818;SDS011;49970;54.976;73.248;2023-03-21T00:21:02;29.70;;;8.63;;
63818;SDS011;49970;54.976;73.248;2023-03-21T00:23:30;19.20;;;9.45;;
63818;SDS011;49970;54.976;73.248;2023-03-21T00:25:58;23.67;;;8.25;;
63818;SDS011;49970;54.976;73.248;2023-03-21T00:28:36;20.85;;;7.95;;
63818;SDS011;49970;54.976;73.248;2023-03-21T00:31:02;16.10;;;8.57;;
63818;SDS011;49970;54.976;73.248;2023-03-21T00:33:38;21.38;;;8.13;;
63818;SDS011;49970;54.976;73.248;2023-03-21T00:36:05;35.33;;;8.90;;
63818;SDS011;49970;54.976;73.248;2023-03-21T00:38:33;24.52;;;8.07;;
63818;SDS011;49970;54.976;73.248;2023-03-21T00:41:10;33.00;;;9.02;;
63818;SDS011;49970;54.976;73.248;2023-03-21T00:43:39;18.75;;;8.57;;
63818;SDS011;49970;54.976;73.248;2023-03-21T00:46:10;22.20;;;7.45;;
63818;SDS011;49970;54.976;73.248;2023-03-21T00:48:38;13.13;;;8.38;;
63818;SDS011;49970;54.976;73.248;2023-03-21T00:51:19;34.55;;;8.13;;
63818;SDS011;49970;54.976;73.248;2023-03-21T00:53:52;22.92;;;8.48;;
63818;SDS011;49970;54.976;73.248;2023-03-21T00:56:30;24.20;;;7.97;;
63818;SDS011;49970;54.976;73.248;2023-03-21T00:58:56;35.97;;;9.93;;
63818;SDS011;49970;54.976;73.248;2023-03-21T01:01:22;20.30;;;8.20;;
63818;SDS011;49970;54.976;73.248;2023-03-21T01:03:51;25.83;;;9.57;;
63818;SDS011;49970;54.976;73.248;2023-03-21T01:06:31;18.83;;;9.80;;
63818;SDS011;49970;54.976;73.248;2023-03-21T01:09:05;25.33;;;9.45;;
63818;SDS011;49970;54.976;73.248;2023-03-21T01:11:43;23.20;;;9.25;;
63818;SDS011;49970;54.976;73.248;2023-03-21T01:14:10;25.38;;;9.05;;
63818;SDS011;49970;54.976;73.248;2023-03-21T01:16:38;34.75;;;8.77;;
63818;SDS011;49970;54.976;73.248;2023-03-21T01:19:05;44.47;;;10.38;;
63818;SDS011;49970;54.976;73.248;2023-03-21T01:21:32;32.97;;;10.82;;
63818;SDS011;49970;54.976;73.248;2023-03-21T01:23:59;27.65;;;10.23;;
63818;SDS011;49970;54.976;73.248;2023-03-21T01:26:26;33.80;;;10.35;;
63818;SDS011;49970;54.976;73.248;2023-03-21T01:28:57;36.88;;;10.07;;
63818;SDS011;49970;54.976;73.248;2023-03-21T01:31:34;32.38;;;9.05;;
63818;SDS011;49970;54.976;73.248;2023-03-21T01:34:10;40.70;;;12.50;;
63818;SDS011;49970;54.976;73.248;2023-03-21T01:36:36;39.67;;;12.20;;
63818;SDS011;49970;54.976;73.248;2023-03-21T01:39:17;36.67;;;12.75;;
63818;SDS011;49970;54.976;73.248;2023-03-21T01:41:46;64.07;;;12.15;;
63818;SDS011;49970;54.976;73.248;2023-03-21T01:44:18;40.60;;;13.40;;
63818;SDS011;49970;54.976;73.248;2023-03-21T01:46:49;54.42;;;13.07;;
63818;SDS011;49970;54.976;73.248;2023-03-21T01:49:45;62.75;;;11.90;;
63818;SDS011;49970;54.976;73.248;2023-03-21T01:52:38;36.42;;;11.55;;
63818;SDS011;49970;54.976;73.248;2023-03-21T01:55:12;39.35;;;11.38;;
63818;SDS011;49970;54.976;73.248;2023-03-21T01:57:50;27.60;;;11.38;;
63818;SDS011;49970;54.976;73.248;2023-03-21T02:00:23;42.10;;;10.38;;
63818;SDS011;49970;54.976;73.248;2023-03-21T02:03:05;34.92;;;11.77;;
63818;SDS011;49970;54.976;73.248;2023-03-21T02:06:00;31.30;;;9.00;;
63818;SDS011;49970;54.976;73.248;2023-03-21T02:08:45;24.42;;;9.05;;
63818;SDS011;49970;54.976;73.248;2023-03-21T02:11:14;35.17;;;9.68;;
63818;SDS011;49970;54.976;73.248;2023-03-21T02:13:42;28.58;;;10.75;;
63818;SDS011;49970;54.976;73.248;2023-03-21T02:25:30;29.15;;;11.30;;
63818;SDS011;49970;54.976;73.248;2023-03-21T02:28:15;26.65;;;11.13;;
63818;SDS011;49970;54.976;73.248;2023-03-21T02:30:52;36.70;;;11.02;;
63818;SDS011;49970;54.976;73.248;2023-03-21T02:33:48;36.58;;;9.90;;
63818;SDS011;49970;54.976;73.248;2023-03-21T02:37:04;21.95;;;9.13;;
63818;SDS011;49970;54.976;73.248;2023-03-21T02:40:21;37.65;;;10.52;;
63818;SDS011;49970;54.976;73.248;2023-03-21T02:43:51;46.65;;;9.38;;
63818;SDS011;49970;54.976;73.248;2023-03-21T02:46:05;31.55;;;9.52;;
63818;SDS011;49970;54.976;73.248;2023-03-21T02:48:50;42.72;;;11.23;;
63818;SDS011;49970;54.976;73.248;2023-03-21T02:51:52;30.58;;;10.00;;
63818;SDS011;49970;54.976;73.248;2023-03-21T02:54:27;29.85;;;9.95;;
63818;SDS011;49970;54.976;73.248;2023-03-21T02:56:56;30.42;;;10.23;;
63818;SDS011;49970;54.976;73.248;2023-03-21T02:59:36;31.50;;;11.02;;
63818;SDS011;49970;54.976;73.248;2023-03-21T03:02:18;16.95;;;9.63;;
63818;SDS011;49970;54.976;73.248;2023-03-21T03:04:53;36.40;;;9.55;;
63818;SDS011;49970;54.976;73.248;2023-03-21T03:07:28;69.68;;;12.10;;
63818;SDS011;49970;54.976;73.248;2023-03-21T03:13:12;40.13;;;11.70;;
63818;SDS011;49970;54.976;73.248;2023-03-21T03:15:51;25.10;;;10.43;;
63818;SDS011;49970;54.976;73.248;2023-03-21T03:21:17;48.63;;;10.65;;
63818;SDS011;49970;54.976;73.248;2023-03-21T03:24:45;41.30;;;10.70;;
63818;SDS011;49970;54.976;73.248;2023-03-21T03:27:26;18.85;;;9.25;;
63818;SDS011;49970;54.976;73.248;2023-03-21T03:30:01;49.60;;;11.45;;
63818;SDS011;49970;54.976;73.248;2023-03-21T03:32:39;21.08;;;10.38;;
63818;SDS011;49970;54.976;73.248;2023-03-21T03:35:16;34.72;;;13.02;;
63818;SDS011;49970;54.976;73.248;2023-03-21T03:37:47;43.28;;;12.50;;
63818;SDS011;49970;54.976;73.248;2023-03-21T03:40:23;61.72;;;16.73;;
63818;SDS011;49970;54.976;73.248;2023-03-21T03:45:36;40.45;;;12.18;;
63818;SDS011;49970;54.976;73.248;2023-03-21T03:50:55;26.08;;;10.80;;
63818;SDS011;49970;54.976;73.248;2023-03-21T03:53:54;42.80;;;12.65;;
63818;SDS011;49970;54.976;73.248;2023-03-21T03:56:27;35.55;;;12.30;;
63818;SDS011;49970;54.976;73.248;2023-03-21T03:58:55;33.83;;;11.32;;
63818;SDS011;49970;54.976;73.248;2023-03-21T04:01:34;49.47;;;11.05;;
63818;SDS011;49970;54.976;73.248;2023-03-21T04:04:01;35.30;;;12.13;;
63818;SDS011;49970;54.976;73.248;2023-03-21T04:06:27;30.77;;;11.65;;
63818;SDS011;49970;54.976;73.248;2023-03-21T04:08:58;57.78;;;12.35;;
63818;SDS011;49970;54.976;73.248;2023-03-21T04:11:29;35.83;;;11.52;;
63818;SDS011;49970;54.976;73.248;2023-03-21T04:14:00;59.13;;;14.13;;
63818;SDS011;49970;54.976;73.248;2023-03-21T04:17:51;41.08;;;12.90;;
63818;SDS011;49970;54.976;73.248;2023-03-21T04:22:07;38.22;;;12.93;;
63818;SDS011;49970;54.976;73.248;2023-03-21T04:26:05;33.28;;;11.43;;
63818;SDS011;49970;54.976;73.248;2023-03-21T04:37:37;30.48;;;11.02;;
63818;SDS011;49970;54.976;73.248;2023-03-21T04:41:28;27.73;;;11.50;;
63818;SDS011;49970;54.976;73.248;2023-03-21T04:43:55;35.90;;;10.52;;
63818;SDS011;49970;54.976;73.248;2023-03-21T04:46:22;26.30;;;10.82;;
63818;SDS011;49970;54.976;73.248;2023-03-21T04:48:49;36.65;;;10.15;;
63818;SDS011;49970;54.976;73.248;2023-03-21T04:51:26;34.78;;;10.85;;
63818;SDS011;49970;54.976;73.248;2023-03-21T04:53:52;29.40;;;10.90;;
63818;SDS011;49970;54.976;73.248;2023-03-21T04:56:32;45.38;;;10.63;;
63818;SDS011;49970;54.976;73.248;2023-03-21T04:59:05;30.73;;;11.20;;
63818;SDS011;49970;54.976;73.248;2023-03-21T05:01:33;23.65;;;11.02;;
63818;SDS011;49970;54.976;73.248;2023-03-21T05:04:00;39.03;;;10.93;;
63818;SDS011;49970;54.976;73.248;2023-03-21T05:06:30;27.13;;;10.00;;
63818;SDS011;49970;54.976;73.248;2023-03-21T05:08:57;29.75;;;11.32;;
63818;SDS011;49970;54.976;73.248;2023-03-21T05:11:41;23.27;;;10.07;;
63818;SDS011;49970;54.976;73.248;2023-03-21T05:14:12;58.13;;;11.15;;
63818;SDS011;49970;54.976;73.248;2023-03-21T05:16:41;25.30;;;11.63;;
63818;SDS011;49970;54.976;73.248;2023-03-21T05:19:19;39.03;;;11.02;;
63818;SDS011;49970;54.976;73.248;2023-03-21T05:22:09;22.65;;;9.38;;
63818;SDS011;49970;54.976;73.248;2023-03-21T05:24:38;30.75;;;9.75;;
63818;SDS011;49970;54.976;73.248;2023-03-21T05:27:19;25.60;;;11.00;;
63818;SDS011;49970;54.976;73.248;2023-03-21T05:30:13;32.63;;;10.18;;
63818;SDS011;49970;54.976;73.248;2023-03-21T05:32:43;39.38;;;11.27;;
63818;SDS011;49970;54.976;73.248;2023-03-21T05:35:10;23.48;;;11.05;;
63818;SDS011;49970;54.976;73.248;2023-03-21T05:37:37;23.77;;;11.02;;
63818;SDS011;49970;54.976;73.248;2023-03-21T05:40:05;24.83;;;8.93;;
63818;SDS011;49970;54.976;73.248;2023-03-21T05:42:36;40.90;;;9.77;;
63818;SDS011;49970;54.976;73.248;2023-03-21T05:45:11;26.83;;;9.90;;
63818;SDS011;49970;54.976;73.248;2023-03-21T05:47:38;25.38;;;12.10;;
63818;SDS011;49970;54.976;73.248;2023-03-21T05:50:05;41.72;;;11.27;;
63818;SDS011;49970;54.976;73.248;2023-03-21T05:52:32;28.05;;;10.70;;
63818;SDS011;49970;54.976;73.248;2023-03-21T05:55:13;34.42;;;11.48;;
63818;SDS011;49970;54.976;73.248;2023-03-21T05:57:39;38.08;;;11.85;;
63818;SDS011;49970;54.976;73.248;2023-03-21T06:00:09;28.23;;;12.75;;
63818;SDS011;49970;54.976;73.248;2023-03-21T06:02:42;25.15;;;11.18;;
63818;SDS011;49970;54.976;73.248;2023-03-21T06:05:29;43.65;;;10.85;;
63818;SDS011;49970;54.976;73.248;2023-03-21T06:07:56;27.02;;;10.90;;
63818;SDS011;49970;54.976;73.248;2023-03-21T06:10:23;33.95;;;10.65;;
63818;SDS011;49970;54.976;73.248;2023-03-21T06:12:49;23.58;;;9.38;;
63818;SDS011;49970;54.976;73.248;2023-03-21T06:15:42;27.10;;;10.45;;
63818;SDS011;49970;54.976;73.248;2023-03-21T06:18:14;26.55;;;10.65;;
63818;SDS011;49970;54.976;73.248;2023-03-21T06:20:52;25.20;;;11.40;;
63818;SDS011;49970;54.976;73.248;2023-03-21T06:23:19;23.58;;;12.00;;
63818;SDS011;49970;54.976;73.248;2023-03-21T06:25:56;22.75;;;10.75;;
63818;SDS011;49970;54.976;73.248;2023-03-21T06:28:24;36.47;;;10.50;;
63818;SDS011;49970;54.976;73.248;2023-03-21T06:30:51;30.13;;;10.23;;
63818;SDS011;49970;54.976;73.248;2023-03-21T06:33:31;22.23;;;9.13;;
63818;SDS011;49970;54.976;73.248;2023-03-21T06:36:07;19.13;;;9.90;;
63818;SDS011;49970;54.976;73.248;2023-03-21T06:38:34;36.25;;;11.32;;
63818;SDS011;49970;54.976;73.248;2023-03-21T06:41:03;35.97;;;12.45;;
63818;SDS011;49970;54.976;73.248;2023-03-21T06:43:38;26.30;;;11.38;;
63818;SDS011;49970;54.976;73.248;2023-03-21T06:46:18;41.83;;;13.85;;
63818;SDS011;49970;54.976;73.248;2023-03-21T06:48:46;29.63;;;11.25;;
63818;SDS011;49970;54.976;73.248;2023-03-21T06:51:13;35.20;;;11.75;;
63818;SDS011;49970;54.976;73.248;2023-03-21T06:53:52;23.35;;;10.32;;
63818;SDS011;49970;54.976;73.248;2023-03-21T06:56:23;26.50;;;9.10;;
63818;SDS011;49970;54.976;73.248;2023-03-21T06:58:55;21.95;;;7.80;;
63818;SDS011;49970;54.976;73.248;2023-03-21T07:01:44;22.23;;;7.80;;
63818;SDS011;49970;54.976;73.248;2023-03-21T07:04:12;20.88;;;8.95;;
63818;SDS011;49970;54.976;73.248;2023-03-21T07:06:38;27.50;;;10.30;;
63818;SDS011;49970;54.976;73.248;2023-03-21T07:09:04;29.83;;;11.13;;
63818;SDS011;49970;54.976;73.248;2023-03-21T07:11:33;29.55;;;11.15;;
63818;SDS011;49970;54.976;73.248;2023-03-21T07:14:02;30.27;;;11.18;;
63818;SDS011;49970;54.976;73.248;2023-03-21T07:16:29;33.92;;;11.32;;
63818;SDS011;49970;54.976;73.248;2023-03-21T07:18:55;26.95;;;11.70;;
63818;SDS011;49970;54.976;73.248;2023-03-21T07:21:21;29.17;;;12.98;;
63818;SDS011;49970;54.976;73.248;2023-03-21T07:23:48;34.90;;;13.02;;
63818;SDS011;49970;54.976;73.248;2023-03-21T07:26:25;32.95;;;13.10;;
63818;SDS011;49970;54.976;73.248;2023-03-21T07:28:51;23.55;;;10.80;;
63818;SDS011;49970;54.976;73.248;2023-03-21T07:31:17;24.75;;;10.75;;
63818;SDS011;49970;54.976;73.248;2023-03-21T07:33:47;34.80;;;10.07;;
63818;SDS011;49970;54.976;73.248;2023-03-21T07:36:14;23.80;;;10.02;;
63818;SDS011;49970;54.976;73.248;2023-03-21T07:38:44;20.02;;;9.02;;
63818;SDS011;49970;54.976;73.248;2023-03-21T07:41:11;25.52;;;9.05;;
63818;SDS011;49970;54.976;73.248;2023-03-21T07:43:37;16.25;;;8.13;;
63818;SDS011;49970;54.976;73.248;2023-03-21T07:46:08;17.02;;;8.50;;
63818;SDS011;49970;54.976;73.248;2023-03-21T07:48:45;18.92;;;7.32;;
63818;SDS011;49970;54.976;73.248;2023-03-21T07:51:11;22.15;;;8.20;;
63818;SDS011;49970;54.976;73.248;2023-03-21T07:53:37;15.23;;;7.35;;
63818;SDS011;49970;54.976;73.248;2023-03-21T07:56:06;17.02;;;8.93;;
63818;SDS011;49970;54.976;73.248;2023-03-21T07:58:32;26.85;;;9.23;;
63818;SDS011;49970;54.976;73.248;2023-03-21T08:00:59;26.13;;;8.38;;
63818;SDS011;49970;54.976;73.248;2023-03-21T08:03:32;21.30;;;8.90;;
63818;SDS011;49970;54.976;73.248;2023-03-21T08:05:59;21.55;;;7.53;;
63818;SDS011;49970;54.976;73.248;2023-03-21T08:08:26;17.77;;;8.35;;
63818;SDS011;49970;54.976;73.248;2023-03-21T08:10:52;20.70;;;8.60;;
63818;SDS011;49970;54.976;73.248;2023-03-21T08:13:18;15.68;;;6.90;;
63818;SDS011;49970;54.976;73.248;2023-03-21T08:15:45;24.60;;;9.57;;
63818;SDS011;49970;54.976;73.248;2023-03-21T08:18:11;18.67;;;7.38;;
63818;SDS011;49970;54.976;73.248;2023-03-21T08:20:37;29.42;;;7.47;;
63818;SDS011;49970;54.976;73.248;2023-03-21T08:23:04;14.45;;;6.63;;
63818;SDS011;49970;54.976;73.248;2023-03-21T08:25:30;21.45;;;7.45;;
63818;SDS011;49970;54.976;73.248;2023-03-21T08:27:57;18.75;;;7.68;;
63818;SDS011;49970;54.976;73.248;2023-03-21T08:30:24;20.15;;;7.30;;
63818;SDS011;49970;54.976;73.248;2023-03-21T08:33:02;16.63;;;6.80;;
63818;SDS011;49970;54.976;73.248;2023-03-21T08:35:29;18.52;;;7.53;;
63818;SDS011;49970;54.976;73.248;2023-03-21T08:37:56;17.88;;;6.43;;
63818;SDS011;49970;54.976;73.248;2023-03-21T08:40:32;11.52;;;5.85;;
63818;SDS011;49970;54.976;73.248;2023-03-21T08:42:59;14.45;;;6.93;;
63818;SDS011;49970;54.976;73.248;2023-03-21T08:45:25;19.33;;;7.30;;
63818;SDS011;49970;54.976;73.248;2023-03-21T08:47:52;17.05;;;7.07;;
63818;SDS011;49970;54.976;73.248;2023-03-21T08:50:24;20.90;;;7.38;;
63818;SDS011;49970;54.976;73.248;2023-03-21T08:52:54;14.82;;;7.10;;
63818;SDS011;49970;54.976;73.248;2023-03-21T08:55:21;26.75;;;7.85;;
63818;SDS011;49970;54.976;73.248;2023-03-21T08:57:47;18.67;;;8.18;;
63818;SDS011;49970;54.976;73.248;2023-03-21T09:00:14;14.27;;;6.65;;
63818;SDS011;49970;54.976;73.248;2023-03-21T09:02:43;13.75;;;7.43;;
63818;SDS011;49970;54.976;73.248;2023-03-21T09:05:11;20.30;;;7.22;;
63818;SDS011;49970;54.976;73.248;2023-03-21T09:07:38;12.20;;;6.20;;
63818;SDS011;49970;54.976;73.248;2023-03-21T09:10:05;16.45;;;6.18;;
63818;SDS011;49970;54.976;73.248;2023-03-21T09:12:34;21.88;;;11.13;;
63818;SDS011;49970;54.976;73.248;2023-03-21T09:15:01;20.92;;;8.30;;
63818;SDS011;49970;54.976;73.248;2023-03-21T09:17:28;15.68;;;6.13;;
63818;SDS011;49970;54.976;73.248;2023-03-21T09:19:56;12.82;;;5.72;;
63818;SDS011;49970;54.976;73.248;2023-03-21T09:22:24;13.80;;;6.18;;
63818;SDS011;49970;54.976;73.248;2023-03-21T09:24:50;22.55;;;6.47;;
63818;SDS011;49970;54.976;73.248;2023-03-21T09:27:17;16.60;;;7.60;;
63818;SDS011;49970;54.976;73.248;2023-03-21T09:29:48;13.20;;;7.82;;
63818;SDS011;49970;54.976;73.248;2023-03-21T09:32:15;17.25;;;8.95;;
63818;SDS011;49970;54.976;73.248;2023-03-21T09:34:53;9.88;;;5.93;;
63818;SDS011;49970;54.976;73.248;2023-03-21T09:37:20;13.00;;;5.93;;
63818;SDS011;49970;54.976;73.248;2023-03-21T09:39:46;13.75;;;6.25;;
63818;SDS011;49970;54.976;73.248;2023-03-21T09:42:28;12.02;;;6.05;;
63818;SDS011;49970;54.976;73.248;2023-03-21T09:47:41;16.73;;;6.68;;
63818;SDS011;49970;54.976;73.248;2023-03-21T09:50:18;14.05;;;5.13;;
63818;SDS011;49970;54.976;73.248;2023-03-21T09:53:03;10.38;;;4.85;;
63818;SDS011;49970;54.976;73.248;2023-03-21T09:55:48;10.02;;;6.45;;
63818;SDS011;49970;54.976;73.248;2023-03-21T09:58:19;11.98;;;6.28;;
63818;SDS011;49970;54.976;73.248;2023-03-21T10:01:01;17.42;;;6.97;;
63818;SDS011;49970;54.976;73.248;2023-03-21T10:04:05;20.52;;;7.72;;
63818;SDS011;49970;54.976;73.248;2023-03-21T10:06:40;12.52;;;5.65;;
63818;SDS011;49970;54.976;73.248;2023-03-21T10:09:19;14.38;;;6.05;;
63818;SDS011;49970;54.976;73.248;2023-03-21T10:12:05;39.80;;;16.88;;
63818;SDS011;49970;54.976;73.248;2023-03-21T10:14:52;21.52;;;11.98;;
63818;SDS011;49970;54.976;73.248;2023-03-21T10:22:51;15.20;;;6.10;;
63818;SDS011;49970;54.976;73.248;2023-03-21T10:25:25;15.98;;;6.03;;
63818;SDS011;49970;54.976;73.248;2023-03-21T10:27:56;12.57;;;4.90;;
63818;SDS011;49970;54.976;73.248;2023-03-21T10:30:36;11.45;;;5.65;;
63818;SDS011;49970;54.976;73.248;2023-03-21T10:33:07;14.77;;;6.28;;
63818;SDS011;49970;54.976;73.248;2023-03-21T10:35:38;15.50;;;6.05;;
63818;SDS011;49970;54.976;73.248;2023-03-21T10:38:19;8.05;;;5.20;;
63818;SDS011;49970;54.976;73.248;2023-03-21T10:40:53;12.50;;;6.00;;
63818;SDS011;49970;54.976;73.248;2023-03-21T10:48:21;10.18;;;5.75;;
63818;SDS011;49970;54.976;73.248;2023-03-21T10:50:50;19.30;;;5.72;;
63818;SDS011;49970;54.976;73.248;2023-03-21T10:53:26;7.95;;;5.38;;
63818;SDS011;49970;54.976;73.248;2023-03-21T10:55:58;9.65;;;5.07;;
63818;SDS011;49970;54.976;73.248;2023-03-21T10:58:27;12.80;;;6.15;;
63818;SDS011;49970;54.976;73.248;2023-03-21T11:01:00;26.00;;;6.15;;
63818;SDS011;49970;54.976;73.248;2023-03-21T11:03:34;11.85;;;4.85;;
63818;SDS011;49970;54.976;73.248;2023-03-21T11:06:22;13.38;;;6.05;;
63818;SDS011;49970;54.976;73.248;2023-03-21T11:08:54;12.82;;;6.40;;
63818;SDS011;49970;54.976;73.248;2023-03-21T11:11:38;10.02;;;5.40;;
63818;SDS011;49970;54.976;73.248;2023-03-21T11:14:07;14.60;;;6.13;;
63818;SDS011;49970;54.976;73.248;2023-03-21T11:16:52;22.98;;;5.70;;
63818;SDS011;49970;54.976;73.248;2023-03-21T11:19:19;11.80;;;5.57;;
63818;SDS011;49970;54.976;73.248;2023-03-21T11:22:05;14.55;;;5.07;;
63818;SDS011;49970;54.976;73.248;2023-03-21T11:24:32;14.10;;;4.97;;
63818;SDS011;49970;54.976;73.248;2023-03-21T11:27:03;19.45;;;5.88;;
63818;SDS011;49970;54.976;73.248;2023-03-21T11:29:33;9.52;;;5.70;;
63818;SDS011;49970;54.976;73.248;2023-03-21T11:34:48;10.25;;;4.95;;
63818;SDS011;49970;54.976;73.248;2023-03-21T11:37:19;9.82;;;5.07;;
63818;SDS011;49970;54.976;73.248;2023-03-21T11:42:42;14.93;;;5.32;;
63818;SDS011;49970;54.976;73.248;2023-03-21T11:47:40;12.70;;;4.97;;
63818;SDS011;49970;54.976;73.248;2023-03-21T11:50:14;11.00;;;4.75;;
63818;SDS011;49970;54.976;73.248;2023-03-21T11:58:50;11.82;;;5.50;;
63818;SDS011;49970;54.976;73.248;2023-03-21T12:04:59;15.90;;;6.28;;
63818;SDS011;49970;54.976;73.248;2023-03-21T12:24:21;18.25;;;6.40;;
63818;SDS011;49970;54.976;73.248;2023-03-21T12:27:10;16.70;;;7.78;;
63818;SDS011;49970;54.976;73.248;2023-03-21T12:35:29;13.15;;;6.43;;
63818;SDS011;49970;54.976;73.248;2023-03-21T12:38:12;12.48;;;6.05;;
63818;SDS011;49970;54.976;73.248;2023-03-21T12:43:46;19.63;;;7.63;;
63818;SDS011;49970;54.976;73.248;2023-03-21T12:46:26;22.63;;;7.85;;
63818;SDS011;49970;54.976;73.248;2023-03-21T12:49:06;14.90;;;9.00;;
63818;SDS011;49970;54.976;73.248;2023-03-21T12:51:42;20.58;;;9.13;;
63818;SDS011;49970;54.976;73.248;2023-03-21T12:54:22;30.60;;;14.27;;
63818;SDS011;49970;54.976;73.248;2023-03-21T13:07:52;54.67;;;26.20;;
63818;SDS011;49970;54.976;73.248;2023-03-21T13:10:28;53.95;;;25.35;;
63818;SDS011;49970;54.976;73.248;2023-03-21T13:23:58;30.35;;;15.85;;
63818;SDS011;49970;54.976;73.248;2023-03-21T13:26:35;41.00;;;16.20;;
63818;SDS011;49970;54.976;73.248;2023-03-21T13:29:25;33.78;;;15.73;;
63818;SDS011;49970;54.976;73.248;2023-03-21T13:38:02;42.08;;;19.35;;
63818;SDS011;49970;54.976;73.248;2023-03-21T13:40:34;34.75;;;17.60;;
63818;SDS011;49970;54.976;73.248;2023-03-21T13:43:24;38.47;;;17.58;;
63818;SDS011;49970;54.976;73.248;2023-03-21T13:48:43;62.13;;;23.58;;
63818;SDS011;49970;54.976;73.248;2023-03-21T13:54:00;56.85;;;25.65;;
63818;SDS011;49970;54.976;73.248;2023-03-21T13:56:28;91.70;;;34.42;;
63818;SDS011;49970;54.976;73.248;2023-03-21T13:59:01;91.13;;;35.90;;
63818;SDS011;49970;54.976;73.248;2023-03-21T14:04:09;110.10;;;42.17;;
63818;SDS011;49970;54.976;73.248;2023-03-21T14:06:42;78.65;;;31.33;;
63818;SDS011;49970;54.976;73.248;2023-03-21T14:09:35;100.70;;;35.17;;
63818;SDS011;49970;54.976;73.248;2023-03-21T14:12:46;83.88;;;31.50;;
63818;SDS011;49970;54.976;73.248;2023-03-21T14:15:18;66.40;;;29.02;;
63818;SDS011;49970;54.976;73.248;2023-03-21T14:18:12;68.13;;;24.33;;
63818;SDS011;49970;54.976;73.248;2023-03-21T14:20:40;65.95;;;28.92;;
63818;SDS011;49970;54.976;73.248;2023-03-21T14:23:07;75.38;;;30.35;;
63818;SDS011;49970;54.976;73.248;2023-03-21T14:25:38;79.05;;;27.88;;
63818;SDS011;49970;54.976;73.248;2023-03-21T14:28:07;67.28;;;27.80;;
63818;SDS011;49970;54.976;73.248;2023-03-21T14:30:40;66.60;;;27.48;;
63818;SDS011;49970;54.976;73.248;2023-03-21T14:36:09;50.70;;;21.88;;
63818;SDS011;49970;54.976;73.248;2023-03-21T14:39:06;43.67;;;20.23;;
63818;SDS011;49970;54.976;73.248;2023-03-21T14:41:48;77.22;;;16.30;;
63818;SDS011;49970;54.976;73.248;2023-03-21T14:44:21;38.60;;;14.30;;
63818;SDS011;49970;54.976;73.248;2023-03-21T14:49:40;29.58;;;12.43;;
63818;SDS011;49970;54.976;73.248;2023-03-21T14:52:08;31.15;;;11.48;;
63818;SDS011;49970;54.976;73.248;2023-03-21T14:54:40;29.52;;;12.52;;
63818;SDS011;49970;54.976;73.248;2023-03-21T14:57:11;31.70;;;13.65;;
63818;SDS011;49970;54.976;73.248;2023-03-21T14:59:40;38.78;;;14.45;;
63818;SDS011;49970;54.976;73.248;2023-03-21T15:02:17;62.15;;;22.92;;
63818;SDS011;49970;54.976;73.248;2023-03-21T15:04:56;48.70;;;17.08;;
63818;SDS011;49970;54.976;73.248;2023-03-21T15:07:31;41.90;;;15.43;;
63818;SDS011;49970;54.976;73.248;2023-03-21T15:10:03;54.40;;;18.52;;
63818;SDS011;49970;54.976;73.248;2023-03-21T15:12:45;35.95;;;15.10;;
63818;SDS011;49970;54.976;73.248;2023-03-21T15:15:29;39.60;;;16.13;;
63818;SDS011;49970;54.976;73.248;2023-03-21T15:17:59;32.33;;;13.88;;
63818;SDS011;49970;54.976;73.248;2023-03-21T15:20:33;44.60;;;17.88;;
63818;SDS011;49970;54.976;73.248;2023-03-21T15:23:24;55.50;;;25.20;;
63818;SDS011;49970;54.976;73.248;2023-03-21T15:25:56;32.45;;;13.45;;
63818;SDS011;49970;54.976;73.248;2023-03-21T15:28:23;35.65;;;12.57;;
63818;SDS011;49970;54.976;73.248;2023-03-21T15:30:51;33.13;;;15.98;;
63818;SDS011;49970;54.976;73.248;2023-03-21T15:33:19;42.55;;;17.17;;
63818;SDS011;49970;54.976;73.248;2023-03-21T15:35:49;29.98;;;15.40;;
63818;SDS011;49970;54.976;73.248;2023-03-21T15:38:32;33.00;;;15.23;;
63818;SDS011;49970;54.976;73.248;2023-03-21T15:41:24;31.92;;;14.55;;
63818;SDS011;49970;54.976;73.248;2023-03-21T15:43:59;28.77;;;13.00;;
63818;SDS011;49970;54.976;73.248;2023-03-21T15:46:43;47.08;;;15.68;;
63818;SDS011;49970;54.976;73.248;2023-03-21T15:49:25;22.92;;;13.05;;
63818;SDS011;49970;54.976;73.248;2023-03-21T15:52:01;26.83;;;13.45;;
63818;SDS011;49970;54.976;73.248;2023-03-21T15:54:42;51.80;;;16.40;;
63818;SDS011;49970;54.976;73.248;2023-03-21T15:57:22;36.90;;;14.10;;
63818;SDS011;49970;54.976;73.248;2023-03-21T16:00:06;46.40;;;16.80;;
63818;SDS011;49970;54.976;73.248;2023-03-21T16:02:57;36.47;;;15.18;;
63818;SDS011;49970;54.976;73.248;2023-03-21T16:05:30;38.25;;;15.25;;
63818;SDS011;49970;54.976;73.248;2023-03-21T16:08:05;43.20;;;14.98;;
63818;SDS011;49970;54.976;73.248;2023-03-21T16:10:44;30.15;;;14.13;;
63818;SDS011;49970;54.976;73.248;2023-03-21T16:13:10;51.17;;;15.50;;
63818;SDS011;49970;54.976;73.248;2023-03-21T16:15:41;38.83;;;15.57;;
63818;SDS011;49970;54.976;73.248;2023-03-21T16:18:07;40.80;;;16.20;;
63818;SDS011;49970;54.976;73.248;2023-03-21T16:20:35;45.38;;;18.42;;
63818;SDS011;49970;54.976;73.248;2023-03-21T16:23:06;46.50;;;20.27;;
63818;SDS011;49970;54.976;73.248;2023-03-21T16:25:34;52.28;;;19.35;;
63818;SDS011;49970;54.976;73.248;2023-03-21T16:28:00;47.95;;;18.70;;
63818;SDS011;49970;54.976;73.248;2023-03-21T16:30:28;42.70;;;18.77;;
63818;SDS011;49970;54.976;73.248;2023-03-21T16:33:05;50.47;;;20.95;;
63818;SDS011;49970;54.976;73.248;2023-03-21T16:35:41;42.70;;;18.90;;
63818;SDS011;49970;54.976;73.248;2023-03-21T16:38:08;59.47;;;22.73;;
63818;SDS011;49970;54.976;73.248;2023-03-21T16:40:37;49.00;;;20.35;;
63818;SDS011;49970;54.976;73.248;2023-03-21T16:43:06;50.13;;;22.75;;
63818;SDS011;49970;54.976;73.248;2023-03-21T16:45:33;52.33;;;22.35;;
63818;SDS011;49970;54.976;73.248;2023-03-21T16:48:10;53.25;;;20.77;;
63818;SDS011;49970;54.976;73.248;2023-03-21T16:50:41;57.80;;;20.75;;
63818;SDS011;49970;54.976;73.248;2023-03-21T16:53:11;50.05;;;21.17;;
63818;SDS011;49970;54.976;73.248;2023-03-21T16:55:43;46.92;;;19.17;;
63818;SDS011;49970;54.976;73.248;2023-03-21T16:58:10;39.00;;;16.67;;
63818;SDS011;49970;54.976;73.248;2023-03-21T17:00:39;42.38;;;17.48;;
63818;SDS011;49970;54.976;73.248;2023-03-21T17:03:12;37.20;;;16.10;;
63818;SDS011;49970;54.976;73.248;2023-03-21T17:05:42;46.35;;;15.90;;